createdAt,value
2017-09-06T05:08:44.187Z,25.6
2017-09-06T05:09:04.561Z,25.6
2017-09-06T05:10:05.255Z,25.6
2017-09-06T05:11:05.393Z,25.7
2017-09-06T05:12:04.592Z,25.7
2017-09-06T05:13:05.898Z,25.7
2017-09-06T05:14:36.576Z,26
2017-09-06T05:15:04.552Z,26
2017-09-06T05:16:04.772Z,26.1
2017-09-06T05:17:05.094Z,26.1
2017-09-06T05:18:06.029Z,26.1
2017-09-06T05:19:04.796Z,26
2017-09-06T05:20:43.045Z,26.2
2017-09-06T05:21:29.233Z,26.1
2017-09-06T05:22:05.436Z,26.1
2017-09-06T05:23:05.059Z,26.3
2017-09-06T05:25:05.306Z,26.5
2017-09-06T05:26:04.153Z,26.6
2017-09-06T05:27:04.950Z,26.6
2017-09-06T05:28:06.548Z,26.6
2017-09-06T05:29:05.072Z,26.7
2017-09-06T05:30:03.732Z,26.8
2017-09-06T05:31:03.937Z,26.8
2017-09-06T05:32:04.907Z,26.7
2017-09-06T05:33:03.732Z,26.7
2017-09-06T05:34:04.132Z,26.7
2017-09-06T05:35:04.136Z,26.8
2017-09-06T05:36:04.522Z,26.8
2017-09-06T05:37:03.820Z,26.8
2017-09-06T05:38:03.742Z,26.8
2017-09-06T05:39:04.469Z,26.9
2017-09-06T05:40:04.023Z,26.7
2017-09-06T05:41:04.120Z,26.8
2017-09-06T05:42:03.714Z,26.9
2017-09-06T05:43:03.359Z,27
2017-09-06T05:44:03.893Z,26.9
2017-09-06T05:45:03.592Z,26.8
2017-09-06T05:46:04.569Z,27
2017-09-06T05:47:04.361Z,27
2017-09-06T05:48:09.085Z,26.9
2017-09-06T05:49:03.682Z,26.6
2017-09-06T05:50:03.126Z,26.6
2017-09-06T05:51:03.698Z,26.8
2017-09-06T05:52:03.733Z,26.8
2017-09-06T05:53:04.119Z,26.8
2017-09-06T05:54:03.536Z,26.8
2017-09-06T05:55:04.133Z,26.9
2017-09-06T05:56:03.939Z,26.9
2017-09-06T05:57:04.252Z,26.9
2017-09-06T05:58:04.026Z,26.7
2017-09-06T05:59:03.781Z,26.7
2017-09-06T06:00:03.802Z,26.8
2017-09-06T06:01:03.800Z,26.9
2017-09-06T06:02:03.586Z,26.8
2017-09-06T06:03:03.517Z,26.8
2017-09-06T06:04:04.294Z,26.8
2017-09-06T06:05:03.972Z,26.8
2017-09-06T06:06:03.777Z,26.7
2017-09-06T06:07:03.733Z,26.6
2017-09-06T06:08:03.479Z,26.7
2017-09-06T06:09:03.675Z,26.8
2017-09-06T06:10:08.141Z,26.8
2017-09-06T06:11:47.540Z,26.4
2017-09-06T06:13:50.219Z,26.7
2017-09-06T06:14:04.307Z,26.8
2017-09-06T06:15:10.610Z,27
2017-09-06T06:16:03.878Z,26.9
2017-09-06T06:17:03.764Z,27
2017-09-06T06:18:04.115Z,26.9
2017-09-06T06:19:04.364Z,26.9
2017-09-06T06:20:04.345Z,26.7
2017-09-06T06:21:04.334Z,26.5
2017-09-06T06:22:04.218Z,26.6
2017-09-06T06:23:04.112Z,26.7
2017-09-06T06:24:04.018Z,26.9
2017-09-06T06:25:03.914Z,27
2017-09-06T06:26:03.617Z,27
2017-09-06T06:27:03.687Z,26.9
2017-09-06T06:28:04.749Z,26.9
2017-09-06T06:29:03.459Z,26.9
2017-09-06T06:30:03.856Z,26.9
2017-09-06T06:31:03.163Z,27
2017-09-06T06:32:03.920Z,27
2017-09-06T06:33:03.200Z,26.9
2017-09-06T06:34:03.656Z,26.9
2017-09-06T06:35:03.922Z,26.8
2017-09-06T06:36:03.412Z,27
2017-09-06T06:37:04.172Z,27
2017-09-06T06:38:03.886Z,27.1
2017-09-06T06:39:03.377Z,27.1
2017-09-06T08:43:29.387Z,24.9
2017-09-06T08:44:04.825Z,25
2017-09-06T08:45:05.038Z,25.2
2017-09-06T08:46:04.537Z,25.3
2017-09-06T08:47:05.216Z,25.3
2017-09-06T08:48:06.158Z,25.3
2017-09-06T08:49:04.546Z,25.5
2017-09-06T08:50:04.420Z,25.6
2017-09-06T08:51:04.687Z,25.7
2017-09-06T08:52:04.193Z,25.9
2017-09-06T08:53:03.642Z,25.9
2017-09-06T08:54:03.748Z,25.9
2017-09-06T08:55:04.540Z,26
2017-09-06T09:01:48.532Z,25.9
2017-09-06T09:02:03.948Z,25.8
2017-09-06T09:03:04.570Z,25.5
2017-09-06T09:04:03.885Z,25.5
2017-09-06T09:05:04.384Z,25.4
2017-09-06T09:06:03.569Z,25.5
2017-09-06T09:07:04.536Z,25.7
2017-09-06T09:08:04.431Z,25.8
2017-09-06T09:09:04.082Z,26
2017-09-06T09:10:03.697Z,26.1
2017-09-06T09:11:03.925Z,25.5
2017-09-06T09:12:03.952Z,25.8
2017-09-06T09:13:04.066Z,25.8
2017-09-06T09:14:03.943Z,25.9
2017-09-06T09:15:03.357Z,26.3
2017-09-06T09:16:04.455Z,26.3
2017-09-06T09:17:03.790Z,26.3
2017-09-06T09:18:04.339Z,26.1
2017-09-06T09:19:04.402Z,26.1
2017-09-06T09:20:04.558Z,26.2
2017-09-06T09:21:04.718Z,26.2
2017-09-06T09:22:04.773Z,26.4
2017-09-06T09:23:04.182Z,26.9
2017-09-06T09:24:03.922Z,26.6
2017-09-06T09:25:04.038Z,26.3
2017-09-06T09:26:03.934Z,26.4
2017-09-06T09:27:03.800Z,26.4
2017-09-06T09:28:04.712Z,26.3
2017-09-06T09:29:04.637Z,26.4
2017-09-06T09:30:03.840Z,26.3
2017-09-06T09:31:04.119Z,26.4
2017-09-06T09:32:04.044Z,26.6
2017-09-06T09:33:03.731Z,26.5
2017-09-06T09:34:04.856Z,26.6
2017-09-06T09:35:04.975Z,26.5
2017-09-06T09:36:04.690Z,26.4
2017-09-06T09:37:04.926Z,26.4
2017-09-06T09:38:04.016Z,26.5
2017-09-06T09:39:03.770Z,26.3
2017-09-06T09:40:04.080Z,26.4
2017-09-06T09:41:03.702Z,26.2
2017-09-06T09:42:04.648Z,26.2
2017-09-06T09:43:03.911Z,26
2017-09-06T09:44:03.660Z,26.1
2017-09-06T09:45:04.560Z,26.3
2017-09-06T09:46:04.303Z,26.4
2017-09-06T09:47:03.743Z,26.3
2017-09-06T09:48:04.177Z,26.2
2017-09-06T09:49:03.980Z,26.2
2017-09-06T09:50:07.966Z,26.5
2017-09-06T09:51:03.417Z,26.7
2017-09-06T09:52:03.692Z,27.1
2017-09-06T09:53:05.021Z,26.9
2017-09-06T09:54:03.701Z,26.8
2017-09-06T09:55:04.164Z,26.8
2017-09-06T09:56:03.793Z,26.8
2017-09-06T09:57:04.429Z,26.7
2017-09-06T09:58:04.239Z,26.6
2017-09-06T09:59:03.874Z,26.9
2017-09-06T10:00:03.709Z,27.1
2017-09-06T10:01:03.758Z,27.5
2017-09-06T10:02:03.791Z,27.6
2017-09-06T10:03:04.694Z,27.3
2017-09-06T10:04:03.565Z,27.3
2017-09-06T10:05:04.256Z,27.5
2017-09-06T10:06:03.701Z,27.3
2017-09-06T10:07:04.051Z,27.5
2017-09-06T10:08:03.933Z,27.3
2017-09-06T10:09:03.642Z,26.7
2017-09-06T10:10:03.269Z,26.5
2017-09-06T10:11:03.955Z,26.6
2017-09-06T10:12:03.785Z,26.6
2017-09-06T10:13:03.331Z,26.5
2017-09-06T13:28:26.934Z,25.6
2017-09-06T13:29:04.361Z,25.9
2017-09-06T13:30:04.202Z,26.1
2017-09-06T13:31:09.946Z,26.2
2017-09-06T13:32:04.065Z,26.4
2017-09-06T13:33:03.497Z,26.5
2017-09-06T13:34:35.814Z,26.6
2017-09-06T13:35:03.853Z,26.7
2017-09-06T13:36:03.917Z,26.8
2017-09-06T13:37:03.414Z,27
2017-09-06T13:38:04.485Z,27.1
2017-09-06T13:39:03.856Z,27.2
2017-09-06T13:40:03.330Z,27.3
2017-09-06T13:41:03.382Z,27.4
2017-09-06T13:42:04.211Z,27.5
2017-09-06T13:43:04.067Z,27.5
2017-09-06T13:44:03.712Z,27.6
2017-09-06T13:45:03.777Z,27.7
2017-09-06T13:46:03.424Z,27.6
2017-09-06T13:47:04.246Z,27.7
2017-09-06T13:48:04.098Z,27.8
2017-09-06T13:49:03.295Z,27.9
2017-09-06T13:50:04.690Z,28
2017-09-06T13:51:03.544Z,28.1
2017-09-06T13:52:04.182Z,28.2
2017-09-06T13:53:04.073Z,28.3
2017-09-06T13:54:03.779Z,28.3
2017-09-06T13:55:03.031Z,28.4
2017-09-06T13:56:03.549Z,28.4
2017-09-06T13:57:04.008Z,28.5
2017-09-06T13:58:03.683Z,28.5
2017-09-06T13:59:04.618Z,28.5
2017-09-06T14:00:03.171Z,28.6
2017-09-06T14:01:03.281Z,28.6
2017-09-06T14:02:04.366Z,28.5
2017-09-06T14:03:33.733Z,28.5
2017-09-06T14:04:28.938Z,28.6
2017-09-06T14:05:07.211Z,28.7
2017-09-06T14:06:03.181Z,28.8
2017-09-06T14:07:02.902Z,28.8
2017-09-06T14:08:03.372Z,28.8
2017-09-06T14:09:02.892Z,28.9
2017-09-06T14:10:03.963Z,28.9
2017-09-06T14:11:03.674Z,28.9
2017-09-06T14:12:03.417Z,29
2017-09-06T14:13:09.680Z,29
2017-09-06T14:14:03.616Z,29.1
2017-09-06T14:15:03.532Z,29.1
2017-09-06T14:16:02.756Z,29.1
2017-09-06T14:17:03.491Z,29.1
2017-09-06T14:18:02.921Z,29.1
2017-09-06T14:19:03.825Z,29.1
2017-09-06T14:20:03.761Z,29.1
2017-09-06T14:21:03.437Z,29.2
2017-09-06T14:22:03.072Z,29.2
2017-09-06T14:23:02.373Z,29.2
2017-09-06T14:24:03.231Z,29.3
2017-09-06T14:25:02.927Z,29.3
2017-09-06T14:26:04.236Z,29.3
2017-09-06T14:27:02.677Z,29.2
2017-09-06T14:28:03.711Z,29.3
2017-09-06T14:29:03.402Z,29.3
2017-09-06T14:30:03.223Z,29.3
2017-09-06T14:31:02.482Z,29.3
2017-09-06T14:32:03.158Z,29.3
2017-09-06T14:33:09.755Z,29.3
2017-09-06T14:34:03.776Z,29.4
2017-09-06T14:35:03.411Z,29.3
2017-09-06T14:36:02.854Z,29.3
2017-09-06T14:37:03.268Z,29.3
2017-09-06T14:38:02.901Z,29.4
